Terminal Aerodrome Forecast
Issued by NWS

Home | Current Version | Previous Version | Text Only | Print | Product List | Glossary On
Versions: 1 2 3 4 5 6 7 8 9 10 11 12 13 14 15
000
FTUS45 KTFX 302300
TAFBZN
TAF
KBZN 302327Z 3100/3124 VRB05KT P6SM VCSH SCT060 BKN100
      TEMPO 3104/3108 -SHRA BKN060
     FM311800 33006KT P6SM VCSH SCT050 BKN250=

USA.gov is the U.S. government's official web portal to all federal, state and local government web resources and services.